createdAt,value
2018-12-01T00:01:11.305Z,33.23
2018-12-01T00:03:38.895Z,35.00
2018-12-01T00:06:06.594Z,31.70
2018-12-01T00:08:34.290Z,36.87
2018-12-01T00:11:01.992Z,29.77
2018-12-01T00:13:29.654Z,34.15
2018-12-01T00:15:57.300Z,31.03
2018-12-01T00:18:25.068Z,31.33
2018-12-01T00:20:52.721Z,34.90
2018-12-01T00:23:20.388Z,34.23
2018-12-01T00:25:48.209Z,32.77
2018-12-01T00:28:15.862Z,30.43
2018-12-01T00:30:43.821Z,31.60
2018-12-01T00:33:11.524Z,31.80
2018-12-01T00:35:39.514Z,33.73
2018-12-01T00:38:07.210Z,33.00
2018-12-01T00:40:34.878Z,31.97
2018-12-01T00:43:02.526Z,31.97
2018-12-01T00:45:30.262Z,32.40
2018-12-01T00:47:57.917Z,33.57
2018-12-01T00:50:25.529Z,29.53
2018-12-01T00:52:53.704Z,30.23
2018-12-01T00:55:21.662Z,31.60
2018-12-01T00:57:49.877Z,38.00
2018-12-01T01:00:23.271Z,32.20
2018-12-01T01:02:53.146Z,38.70
2018-12-01T01:05:22.888Z,26.50
2018-12-01T01:07:50.542Z,27.57
2018-12-01T01:10:19.341Z,33.13
2018-12-01T01:12:47.039Z,30.20
2018-12-01T01:15:14.692Z,28.43
2018-12-01T01:17:42.465Z,33.10
2018-12-01T01:20:16.437Z,25.40
2018-12-01T01:22:44.802Z,25.13
2018-12-01T01:25:13.069Z,25.77
2018-12-01T01:27:40.794Z,26.27
2018-12-01T01:30:14.327Z,25.17
2018-12-01T01:32:41.925Z,25.27
2018-12-01T01:35:09.594Z,32.63
2018-12-01T01:37:37.269Z,26.90
2018-12-01T01:40:11.324Z,24.90
2018-12-01T01:42:39.141Z,24.87
2018-12-01T01:45:23.805Z,27.40
2018-12-01T01:47:51.488Z,26.77
2018-12-01T01:50:20.435Z,28.67
2018-12-01T01:52:48.283Z,27.57
2018-12-01T01:55:15.921Z,23.83
2018-12-01T01:57:43.598Z,28.27
2018-12-01T02:00:17.944Z,30.50
2018-12-01T02:02:47.878Z,29.50
2018-12-01T02:05:16.522Z,25.40
2018-12-01T02:07:44.202Z,27.27
2018-12-01T02:10:13.519Z,23.23
2018-12-01T02:12:41.186Z,23.53
2018-12-01T02:15:10.382Z,24.07
2018-12-01T02:17:38.035Z,25.83
2018-12-01T02:20:10.562Z,27.67
2018-12-01T02:22:39.871Z,24.27
2018-12-01T02:25:11.363Z,27.17
2018-12-01T02:27:39.003Z,23.27
2018-12-01T02:30:09.271Z,28.50
2018-12-01T02:32:37.209Z,26.07
2018-12-01T02:35:09.261Z,29.63
2018-12-01T02:37:37.205Z,27.47
2018-12-01T02:40:08.529Z,29.97
2018-12-01T02:42:36.217Z,25.53
2018-12-01T02:45:21.480Z,23.40
2018-12-01T02:47:49.138Z,26.03
2018-12-01T02:50:22.685Z,24.60
2018-12-01T02:52:50.727Z,20.50
2018-12-01T02:55:18.489Z,23.00
2018-12-01T02:57:46.208Z,26.23
2018-12-01T03:00:13.878Z,24.10
2018-12-01T03:02:41.532Z,22.15
2018-12-01T03:05:11.890Z,25.93
2018-12-01T03:07:39.918Z,22.37
2018-12-01T03:10:10.170Z,25.40
2018-12-01T03:12:37.865Z,23.43
2018-12-01T03:15:08.928Z,27.30
2018-12-01T03:17:36.581Z,26.57
2018-12-01T03:20:15.336Z,24.30
2018-12-01T03:22:43.004Z,18.97
2018-12-01T03:25:17.257Z,22.50
2018-12-01T03:27:45.534Z,22.47
2018-12-01T03:30:13.262Z,22.73
2018-12-01T03:32:40.949Z,26.33
2018-12-01T03:35:13.356Z,21.17
2018-12-01T03:37:42.668Z,25.80
2018-12-01T03:40:11.536Z,24.00
2018-12-01T03:42:39.336Z,24.03
2018-12-01T03:45:10.328Z,25.17
2018-12-01T03:47:38.414Z,24.93
2018-12-01T03:50:08.493Z,24.50
2018-12-01T03:52:36.106Z,22.97
2018-12-01T03:55:04.566Z,27.00
2018-12-01T03:57:32.163Z,26.17
2018-12-01T03:59:59.802Z,24.77
2018-12-01T04:02:27.417Z,20.30
2018-12-01T04:04:55.084Z,25.07
2018-12-01T04:07:22.735Z,24.57
2018-12-01T04:09:50.386Z,20.03
2018-12-01T04:12:17.986Z,23.40
2018-12-01T04:14:45.681Z,21.97
2018-12-01T04:17:13.349Z,25.27
2018-12-01T04:19:41.005Z,26.30
2018-12-01T04:22:08.784Z,23.90
2018-12-01T04:24:36.440Z,22.60
2018-12-01T04:27:04.425Z,27.48
2018-12-01T04:29:32.094Z,23.97
2018-12-01T04:31:59.743Z,23.75
2018-12-01T04:34:27.406Z,20.43
2018-12-01T04:36:55.029Z,24.57
2018-12-01T04:39:22.734Z,28.90
2018-12-01T04:41:50.390Z,21.37
2018-12-01T04:44:18.022Z,23.00
2018-12-01T04:46:45.658Z,27.80
2018-12-01T04:49:13.310Z,20.10
2018-12-01T04:51:40.925Z,23.50
2018-12-01T04:54:08.566Z,26.00
2018-12-01T04:56:36.209Z,27.57
2018-12-01T04:59:03.832Z,25.30
2018-12-01T05:01:31.486Z,27.27
2018-12-01T05:03:59.147Z,24.57
2018-12-01T05:06:26.821Z,23.43
2018-12-01T05:08:55.025Z,21.33
2018-12-01T05:11:22.725Z,28.37
2018-12-01T05:13:50.390Z,24.97
2018-12-01T05:16:18.116Z,23.13
2018-12-01T05:18:45.853Z,24.63
2018-12-01T05:21:13.586Z,24.55
2018-12-01T05:23:41.383Z,23.00
2018-12-01T05:26:09.039Z,21.83
2018-12-01T05:28:36.810Z,23.47
2018-12-01T05:31:04.470Z,21.93
2018-12-01T05:33:32.169Z,25.25
2018-12-01T05:35:59.909Z,24.97
2018-12-01T05:38:27.581Z,27.47
2018-12-01T05:40:55.265Z,23.18
2018-12-01T05:43:22.847Z,26.70
2018-12-01T05:45:50.492Z,27.03
2018-12-01T05:48:18.174Z,26.00
2018-12-01T05:50:45.825Z,27.65
2018-12-01T05:53:13.584Z,26.37
2018-12-01T05:55:41.217Z,30.13
2018-12-01T05:58:08.989Z,28.63
2018-12-01T06:00:36.673Z,27.30
2018-12-01T06:03:05.761Z,31.87
2018-12-01T06:05:33.374Z,24.50
2018-12-01T06:08:01.046Z,30.23
2018-12-01T06:10:28.699Z,30.40
2018-12-01T06:13:00.282Z,28.70
2018-12-01T06:15:28.651Z,27.53
2018-12-01T06:17:56.579Z,27.60
2018-12-01T06:20:24.294Z,28.73
2018-12-01T06:22:52.678Z,24.93
2018-12-01T06:25:22.165Z,30.80
2018-12-01T06:27:50.350Z,30.23
2018-12-01T06:30:19.061Z,27.03
2018-12-01T06:32:48.733Z,26.73
2018-12-01T06:35:16.674Z,31.00
2018-12-01T06:37:44.422Z,34.77
2018-12-01T06:40:18.237Z,31.00
2018-12-01T06:42:45.876Z,35.10
2018-12-01T06:45:14.617Z,35.38
2018-12-01T06:47:42.623Z,35.00
2018-12-01T06:50:13.717Z,35.77
2018-12-01T06:52:41.443Z,34.03
2018-12-01T06:55:10.814Z,36.53
2018-12-01T06:57:38.525Z,33.00
2018-12-01T07:00:14.557Z,33.93
2018-12-01T07:02:43.170Z,33.07
2018-12-01T07:05:12.493Z,34.40
2018-12-01T07:07:41.130Z,33.43
2018-12-01T07:10:11.571Z,37.37
2018-12-01T07:12:41.248Z,32.60
2018-12-01T07:15:11.917Z,37.27
2018-12-01T07:17:39.594Z,34.93
2018-12-01T07:20:08.425Z,34.60
2018-12-01T07:22:36.130Z,36.03
2018-12-01T07:25:04.439Z,37.60
2018-12-01T07:27:32.199Z,32.63
2018-12-01T07:29:59.915Z,42.10
2018-12-01T07:32:27.653Z,33.70
2018-12-01T07:34:55.343Z,34.63
2018-12-01T07:37:23.083Z,36.50
2018-12-01T07:39:50.785Z,38.37
2018-12-01T07:42:18.695Z,37.83
2018-12-01T07:44:47.046Z,38.80
2018-12-01T07:47:14.350Z,39.67
2018-12-01T07:49:42.009Z,32.67
2018-12-01T07:52:10.696Z,36.83
2018-12-01T07:54:38.481Z,42.40
2018-12-01T07:57:06.203Z,34.88
2018-12-01T07:59:33.834Z,42.23
2018-12-01T08:02:01.497Z,38.43
2018-12-01T08:04:29.182Z,41.93
2018-12-01T08:06:56.883Z,41.08
2018-12-01T08:09:24.541Z,40.20
2018-12-01T08:11:52.432Z,40.33
2018-12-01T08:14:20.195Z,38.53
2018-12-01T08:16:48.107Z,36.97
2018-12-01T08:19:15.741Z,38.07
2018-12-01T08:21:43.397Z,44.43
2018-12-01T08:24:11.227Z,38.33
2018-12-01T08:26:39.106Z,39.57
2018-12-01T08:29:06.878Z,42.83
2018-12-01T08:31:34.819Z,40.60
2018-12-01T08:34:02.488Z,40.40
2018-12-01T08:36:30.354Z,38.13
2018-12-01T08:38:58.010Z,47.95
2018-12-01T08:41:25.673Z,45.12
2018-12-01T08:43:53.472Z,40.70
2018-12-01T08:46:21.226Z,42.70
2018-12-01T08:48:48.965Z,44.87
2018-12-01T08:51:16.813Z,47.13
2018-12-01T08:53:44.429Z,51.07
2018-12-01T08:56:12.129Z,44.88
2018-12-01T08:58:39.946Z,54.35
2018-12-01T09:01:07.614Z,50.23
2018-12-01T09:03:35.536Z,42.20
2018-12-01T09:06:03.189Z,43.03
2018-12-01T09:08:30.907Z,44.37
2018-12-01T09:10:58.546Z,42.87
2018-12-01T09:13:26.202Z,47.25
2018-12-01T09:15:53.980Z,55.70
2018-12-01T09:18:21.658Z,54.30
2018-12-01T09:20:49.405Z,47.27
2018-12-01T09:23:17.060Z,46.85
2018-12-01T09:25:44.849Z,48.33
2018-12-01T09:28:12.693Z,43.07
2018-12-01T09:30:41.842Z,44.43
2018-12-01T09:33:09.552Z,45.30
2018-12-01T09:35:37.412Z,52.13
2018-12-01T09:38:05.384Z,43.80
2018-12-01T09:40:35.143Z,47.13
2018-12-01T09:43:06.678Z,41.97
2018-12-01T09:45:34.471Z,46.63
2018-12-01T09:48:03.734Z,40.30
2018-12-01T09:50:32.001Z,42.57
2018-12-01T09:53:01.619Z,48.57
2018-12-01T09:55:30.564Z,47.63
2018-12-01T09:57:59.286Z,44.10
2018-12-01T10:00:29.348Z,46.97
2018-12-01T10:02:58.050Z,44.70
2018-12-01T10:05:25.763Z,46.90
2018-12-01T10:07:53.541Z,45.60
2018-12-01T10:10:23.471Z,50.28
2018-12-01T10:12:52.996Z,46.80
2018-12-01T10:15:25.275Z,45.43
2018-12-01T10:17:52.965Z,52.73
2018-12-01T10:20:24.580Z,46.67
2018-12-01T10:22:52.226Z,44.70
2018-12-01T10:25:19.974Z,56.80
2018-12-01T10:27:47.897Z,53.87
2018-12-01T10:30:18.814Z,51.55
2018-12-01T10:32:47.150Z,56.97
2018-12-01T10:35:16.424Z,45.63
2018-12-01T10:37:48.461Z,47.53
2018-12-01T10:40:16.169Z,51.53
2018-12-01T10:42:43.854Z,49.67
2018-12-01T10:45:14.919Z,53.05
2018-12-01T10:47:43.575Z,55.30
2018-12-01T10:50:22.940Z,46.67
2018-12-01T10:52:53.205Z,45.67
2018-12-01T10:55:27.897Z,45.67
2018-12-01T10:58:01.783Z,55.60
2018-12-01T11:00:35.612Z,51.70
2018-12-01T11:03:03.706Z,47.03
2018-12-01T11:05:34.599Z,50.23
2018-12-01T11:08:03.473Z,46.80
2018-12-01T11:10:31.893Z,48.63
2018-12-01T11:13:13.744Z,41.87
2018-12-01T11:15:41.499Z,53.50
2018-12-01T11:18:09.417Z,51.77
2018-12-01T11:20:37.852Z,49.23
2018-12-01T11:23:06.671Z,52.27
2018-12-01T11:25:34.453Z,53.30
2018-12-01T11:28:02.166Z,51.47
2018-12-01T11:30:29.882Z,50.85
2018-12-01T11:32:58.950Z,51.40
2018-12-01T11:35:27.248Z,52.10
2018-12-01T11:37:55.272Z,51.40
2018-12-01T11:40:22.949Z,47.43
2018-12-01T11:42:51.218Z,54.50
2018-12-01T11:45:20.504Z,61.63
2018-12-01T11:47:48.282Z,58.30
2018-12-01T11:50:18.544Z,52.43
2018-12-01T11:52:47.887Z,51.30
2018-12-01T11:55:19.333Z,53.00
2018-12-01T11:57:47.087Z,57.03
2018-12-01T12:00:18.861Z,50.10
2018-12-01T12:02:46.940Z,59.73
2018-12-01T12:05:16.065Z,55.03
2018-12-01T12:08:16.300Z,59.37
2018-12-01T12:10:44.033Z,57.40
2018-12-01T12:13:13.250Z,54.30
2018-12-01T12:15:41.112Z,59.53
2018-12-01T12:18:08.930Z,65.33
2018-12-01T12:20:36.910Z,63.23
2018-12-01T12:23:06.771Z,64.43
2018-12-01T12:25:34.704Z,64.53
2018-12-01T12:28:02.982Z,64.17
2018-12-01T12:30:30.981Z,55.73
2018-12-01T12:32:59.030Z,61.43
2018-12-01T12:35:27.537Z,57.37
2018-12-01T12:37:55.782Z,54.93
2018-12-01T12:40:25.929Z,65.30
2018-12-01T12:42:56.030Z,69.60
2018-12-01T12:45:25.166Z,56.10
2018-12-01T12:47:53.846Z,58.80
2018-12-01T12:50:22.611Z,59.87
2018-12-01T12:52:55.605Z,62.60
2018-12-01T12:55:25.605Z,65.30
2018-12-01T12:57:54.023Z,69.80
2018-12-01T13:00:25.835Z,60.40
2018-12-01T13:03:03.092Z,64.00
2018-12-01T13:05:34.683Z,62.07
2018-12-01T13:08:02.895Z,55.70
2018-12-01T13:10:32.707Z,55.90
2018-12-01T13:13:00.438Z,60.67
2018-12-01T13:15:28.966Z,52.97
2018-12-01T13:17:56.709Z,63.73
2018-12-01T13:20:29.354Z,61.30
2018-12-01T13:23:04.392Z,59.73
2018-12-01T13:25:35.256Z,57.13
2018-12-01T13:28:10.271Z,57.00
2018-12-01T13:30:49.756Z,67.93
2018-12-01T13:33:17.983Z,60.47
2018-12-01T13:35:45.706Z,63.17
2018-12-01T13:38:13.452Z,60.20
2018-12-01T13:40:42.039Z,58.80
2018-12-01T13:43:09.863Z,61.50
2018-12-01T13:45:38.364Z,60.77
2018-12-01T13:48:07.196Z,64.17
2018-12-01T13:50:34.886Z,67.60
2018-12-01T13:53:06.853Z,66.30
2018-12-01T13:55:35.182Z,57.93
2018-12-01T13:58:02.864Z,57.90
2018-12-01T14:00:30.609Z,68.80
2018-12-01T14:02:59.272Z,62.35
2018-12-01T14:05:27.047Z,60.83
2018-12-01T14:07:54.752Z,64.43
2018-12-01T14:10:26.929Z,68.95
2018-12-01T14:12:57.922Z,67.83
2018-12-01T14:15:25.669Z,67.20
2018-12-01T14:17:53.305Z,74.03
2018-12-01T14:20:23.139Z,70.80
2018-12-01T14:22:50.940Z,66.40
2018-12-01T14:25:20.298Z,77.07
2018-12-01T14:27:53.043Z,84.73
2018-12-01T14:30:21.614Z,65.27
2018-12-01T14:32:51.784Z,71.70
2018-12-01T14:35:27.191Z,77.87
2018-12-01T14:38:07.846Z,71.87
2018-12-01T14:40:36.547Z,67.97
2018-12-01T14:43:04.285Z,70.80
2018-12-01T14:45:32.934Z,73.50
2018-12-01T14:48:00.557Z,78.37
2018-12-01T14:50:29.231Z,67.40
2018-12-01T14:52:56.866Z,76.23
2018-12-01T14:55:24.641Z,78.35
2018-12-01T14:57:52.923Z,73.97
2018-12-01T15:00:24.185Z,75.43
2018-12-01T15:02:54.937Z,72.60
2018-12-01T15:05:23.458Z,82.23
2018-12-01T15:07:51.744Z,82.93
2018-12-01T15:10:23.522Z,84.83
2018-12-01T15:12:51.249Z,80.63
2018-12-01T15:15:22.762Z,74.20
2018-12-01T15:17:50.538Z,84.90
2018-12-01T15:20:21.526Z,89.83
2018-12-01T15:22:54.517Z,90.37
2018-12-01T15:25:27.032Z,84.87
2018-12-01T15:27:54.837Z,87.53
2018-12-01T15:30:24.825Z,87.07
2018-12-01T15:33:03.662Z,86.50
2018-12-01T15:35:32.194Z,79.10
2018-12-01T15:37:59.958Z,83.83
2018-12-01T15:40:28.245Z,80.33
2018-12-01T15:42:56.101Z,81.40
2018-12-01T15:45:25.304Z,83.13
2018-12-01T15:47:54.124Z,85.03
2018-12-01T15:50:21.579Z,79.27
2018-12-01T15:52:53.604Z,86.40
2018-12-01T15:55:22.288Z,81.83
2018-12-01T15:57:50.777Z,78.70
2018-12-01T16:00:24.683Z,78.10
2018-12-01T16:02:52.573Z,77.60
2018-12-01T16:05:22.561Z,73.93
2018-12-01T16:07:56.292Z,81.13
2018-12-01T16:10:25.341Z,84.37
2018-12-01T16:13:06.826Z,79.27
2018-12-01T16:15:38.411Z,75.10
2018-12-01T16:18:08.012Z,67.67
2018-12-01T16:20:36.298Z,73.50
2018-12-01T16:23:04.547Z,68.87
2018-12-01T16:25:33.282Z,83.77
2018-12-01T16:28:02.095Z,73.23
2018-12-01T16:30:36.977Z,67.73
2018-12-01T16:33:19.441Z,71.13
2018-12-01T16:35:49.193Z,80.03
2018-12-01T16:38:22.864Z,75.73
2018-12-01T16:40:52.950Z,72.50
2018-12-01T16:43:21.506Z,79.13
2018-12-01T16:45:52.063Z,76.07
2018-12-01T16:48:21.124Z,78.53
2018-12-01T16:50:49.693Z,72.33
2018-12-01T16:53:19.369Z,79.00
2018-12-01T16:55:47.029Z,80.40
2018-12-01T16:58:14.757Z,80.03
2018-12-01T17:00:42.615Z,89.80
2018-12-01T17:03:11.495Z,82.05
2018-12-01T17:05:44.237Z,80.50
2018-12-01T17:08:11.921Z,82.80
2018-12-01T17:10:40.682Z,82.30
2018-12-01T17:13:08.904Z,75.40
2018-12-01T17:15:36.590Z,77.20
2018-12-01T17:18:06.040Z,80.77
2018-12-01T17:20:33.899Z,81.20
2018-12-01T17:23:02.179Z,88.20
2018-12-01T17:25:29.997Z,85.70
2018-12-01T17:27:59.716Z,85.40
2018-12-01T17:30:28.595Z,84.53
2018-12-01T17:32:58.095Z,80.63
2018-12-01T17:35:27.533Z,89.83
2018-12-01T17:37:58.070Z,82.73
2018-12-01T17:40:31.756Z,84.33
2018-12-01T17:42:59.486Z,82.57
2018-12-01T17:45:27.128Z,82.77
2018-12-01T17:47:54.927Z,87.02
2018-12-01T17:50:22.615Z,78.90
2018-12-01T17:52:53.353Z,84.10
2018-12-01T17:55:22.390Z,78.57
2018-12-01T17:57:51.949Z,79.40
2018-12-01T18:00:21.449Z,84.47
2018-12-01T18:02:50.917Z,84.13
2018-12-01T18:05:27.551Z,75.40
2018-12-01T18:07:55.918Z,77.93
2018-12-01T18:10:24.556Z,81.87
2018-12-01T18:12:53.925Z,76.17
2018-12-01T18:15:22.773Z,94.43
2018-12-01T18:17:50.432Z,85.50
2018-12-01T18:20:21.317Z,77.80
2018-12-01T18:22:55.778Z,89.10
2018-12-01T18:25:25.546Z,89.60
2018-12-01T18:27:55.330Z,71.67
2018-12-01T18:30:30.380Z,80.10
2018-12-01T18:33:03.835Z,91.07
2018-12-01T18:35:31.675Z,82.77
2018-12-01T18:37:59.434Z,82.30
2018-12-01T18:40:27.141Z,89.03
2018-12-01T18:42:54.933Z,75.37
2018-12-01T18:45:22.865Z,75.62
2018-12-01T18:47:50.679Z,77.55
2018-12-01T18:50:19.250Z,89.10
2018-12-01T18:52:54.747Z,79.23
2018-12-01T18:55:23.226Z,73.93
2018-12-01T18:57:51.051Z,75.90
2018-12-01T19:00:29.413Z,79.73
2018-12-01T19:02:57.180Z,71.20
2018-12-01T19:05:24.871Z,70.80
2018-12-01T19:07:52.634Z,75.35
2018-12-01T19:10:20.353Z,72.30
2018-12-01T19:12:48.134Z,75.83
2018-12-01T19:15:18.043Z,77.83
2018-12-01T19:17:47.645Z,72.60
2018-12-01T19:20:17.763Z,72.97
2018-12-01T19:22:47.288Z,72.23
2018-12-01T19:25:19.848Z,74.20
2018-12-01T19:27:48.289Z,68.10
2018-12-01T19:30:19.742Z,79.90
2018-12-01T19:32:55.938Z,81.43
2018-12-01T19:35:23.709Z,84.77
2018-12-01T19:37:53.048Z,81.07
2018-12-01T19:40:28.618Z,76.70
2018-12-01T19:42:54.091Z,74.37
2018-12-01T19:45:21.797Z,72.00
2018-12-01T19:47:50.378Z,85.17
2018-12-01T19:50:21.179Z,74.30
2018-12-01T19:52:48.919Z,83.90
2018-12-01T19:55:18.234Z,72.50
2018-12-01T19:57:45.951Z,75.37
2018-12-01T20:00:18.290Z,71.60
2018-12-01T20:02:46.141Z,76.00
2018-12-01T20:05:15.718Z,73.77
2018-12-01T20:07:44.589Z,79.17
2018-12-01T20:10:22.285Z,67.43
2018-12-01T20:13:01.078Z,76.67
2018-12-01T20:15:32.820Z,75.50
2018-12-01T20:18:04.170Z,65.50
2018-12-01T20:20:32.682Z,75.87
2018-12-01T20:23:01.218Z,75.03
2018-12-01T20:25:28.923Z,79.17
2018-12-01T20:27:56.600Z,67.27
2018-12-01T20:30:24.360Z,68.57
2018-12-01T20:32:52.239Z,74.30
2018-12-01T20:35:28.565Z,72.40
2018-12-01T20:38:09.873Z,66.93
2018-12-01T20:40:37.648Z,66.23
2018-12-01T20:43:05.843Z,79.70
2018-12-01T20:45:33.576Z,63.07
2018-12-01T20:48:01.300Z,84.40
2018-12-01T20:50:28.962Z,74.47
2018-12-01T20:52:56.674Z,64.53
2018-12-01T20:55:27.368Z,77.47
2018-12-01T20:57:57.586Z,62.50
2018-12-01T21:00:25.641Z,65.13
2018-12-01T21:02:53.402Z,55.00
2018-12-01T21:05:22.844Z,64.83
2018-12-01T21:07:50.777Z,56.50
2018-12-01T21:10:38.899Z,60.97
2018-12-01T21:13:07.014Z,55.70
2018-12-01T21:15:34.711Z,68.53
2018-12-01T21:18:02.399Z,55.87
2018-12-01T21:20:30.104Z,60.25
2018-12-01T21:22:57.837Z,63.40
2018-12-01T21:25:27.084Z,56.33
2018-12-01T21:27:58.131Z,47.00
2018-12-01T21:30:27.921Z,50.00
2018-12-01T21:33:00.110Z,51.40
2018-12-01T21:35:27.777Z,52.57
2018-12-01T21:37:55.530Z,51.40
2018-12-01T21:40:23.206Z,53.63
2018-12-01T21:42:50.938Z,44.58
2018-12-01T21:45:18.941Z,49.53
2018-12-01T21:47:46.859Z,53.58
2018-12-01T21:50:17.261Z,52.45
2018-12-01T21:52:48.003Z,54.10
2018-12-01T21:55:15.873Z,46.33
2018-12-01T21:57:45.266Z,50.13
2018-12-01T22:00:21.974Z,52.53
2018-12-01T22:02:53.335Z,52.73
2018-12-01T22:05:27.476Z,53.73
2018-12-01T22:07:55.239Z,50.40
2018-12-01T22:10:23.059Z,54.33
2018-12-01T22:12:50.751Z,48.70
2018-12-01T22:15:19.864Z,50.90
2018-12-01T22:17:47.754Z,51.27
2018-12-01T22:20:18.259Z,50.07
2018-12-01T22:22:46.146Z,59.37
2018-12-01T22:25:13.920Z,48.20
2018-12-01T22:27:41.598Z,50.57
2018-12-01T22:30:14.891Z,49.20
2018-12-01T22:32:44.890Z,48.27
2018-12-01T22:35:14.818Z,49.90
2018-12-01T22:37:42.515Z,57.90
2018-12-01T22:40:14.375Z,49.17
2018-12-01T22:42:42.063Z,49.43
2018-12-01T22:45:09.828Z,46.90
2018-12-01T22:47:37.926Z,44.88
2018-12-01T22:50:13.274Z,49.97
2018-12-01T22:52:42.914Z,43.90
2018-12-01T22:55:14.673Z,43.47
2018-12-01T22:57:44.787Z,45.43
2018-12-01T23:00:23.858Z,48.80
2018-12-01T23:02:51.623Z,49.00
2018-12-01T23:05:19.326Z,41.23
2018-12-01T23:07:47.002Z,40.50
2018-12-01T23:10:16.037Z,40.28
2018-12-01T23:12:45.409Z,43.10
2018-12-01T23:15:15.040Z,42.20
2018-12-01T23:17:47.472Z,46.40
2018-12-01T23:20:17.933Z,40.50
2018-12-01T23:22:45.867Z,44.53
2018-12-01T23:25:13.611Z,44.77
2018-12-01T23:27:41.255Z,37.80
2018-12-01T23:30:22.120Z,42.95
2018-12-01T23:33:00.868Z,39.03
2018-12-01T23:35:29.651Z,40.40
2018-12-01T23:37:57.775Z,41.03
2018-12-01T23:40:25.536Z,38.07
2018-12-01T23:42:53.299Z,35.70
2018-12-01T23:45:21.682Z,39.10
2018-12-01T23:47:49.537Z,42.83
2018-12-01T23:50:20.799Z,36.63
2018-12-01T23:52:51.403Z,40.57
2018-12-01T23:55:19.110Z,46.23
2018-12-01T23:57:46.980Z,39.07
